Time;durP1;ratioP1;P1;durP2;ratioP2;P2;SDS_P1;SDS_P2;PMS_P1;PMS_P2;Temp;Humidity;BMP_temperature;BMP_pressure;BME280_temperature;BME280_humidity;BME280_pressure;Samples;Min_cycle;Max_cycle;Signal;HPM_P1;HPM_P2
2023/04/03 01:10:21;;;;;;;;;;;;;;;;;;;;;
2023/04/03 01:14:01;;;;;;;;;;;;;;;;;;;;;
2023/04/03 01:17:22;;;;;;;;;;;;;;;;;;;;;
2023/04/03 01:20:54;;;;;;;;;;;;;;;;;;;;;
2023/04/03 02:24:02;;;;;;;;;;;;;;;;;;;;;
2023/04/03 02:31:16;;;;;;;;;;;;;;;;;;;;;
2023/04/03 02:37:57;;;;;;;;;;;;;;;;;;;;;
2023/04/03 02:41:57;;;;;;;0.35;0.30;;;17.80;38.10;;;;;;5744252;24;21076;-84
2023/04/03 02:54:54;;;;;;;0.38;0.25;;;17.80;38.10;;;;;;5708013;25;20173;-84
2023/04/03 02:58:19;;;;;;;0.30;0.30;;;17.80;38.20;;;;;;5726181;25;20205;-85
2023/04/03 03:01:32;;;;;;;0.77;0.30;;;17.80;38.20;;;;;;5661512;25;20169;-84
2023/04/03 03:05:05;;;;;;;;;;;;;;;;;;;;;
2023/04/03 03:08:08;;;;;;;;;;;;;;;;;;;;;
2023/04/03 03:36:38;;;;;;;1.13;0.40;;;17.80;38.30;;;;;;5280341;22;25095245;-84
2023/04/03 03:39:39;;;;;;;0.20;0.20;;;17.70;38.30;;;;;;6197216;23;20181;-85
2023/04/03 03:47:08;;;;;;;;;;;;;;;;;;;;;
2023/04/03 03:50:06;;;;;;;0.32;0.20;;;17.70;38.30;;;;;;5950605;24;20159;-84
2023/04/03 03:53:24;;;;;;;0.50;0.30;;;17.70;38.30;;;;;;5960142;24;20155;-83
2023/04/03 03:56:41;;;;;;;;;;;;;;;;;;;;;
2023/04/03 04:14:24;;;;;;;;;;;;;;;;;;;;;
2023/04/03 04:17:56;;;;;;;;;;;;;;;;;;;;;
2023/04/03 04:35:05;;;;;;;;;;;;;;;;;;;;;
2023/04/03 04:42:08;;;;;;;;;;;;;;;;;;;;;
2023/04/03 04:45:07;;;;;;;0.30;0.30;;;17.70;38.50;;;;;;5856177;24;20198;-83
2023/04/03 04:47:36;;;;;;;0.30;0.22;;;17.70;38.50;;;;;;5863891;24;20166;-83
2023/04/03 04:50:10;;;;;;;0.77;0.30;;;17.70;38.40;;;;;;5893996;24;20157;-83
2023/04/03 04:52:42;;;;;;;0.55;0.35;;;17.70;38.40;;;;;;5835575;24;20226;-83
2023/04/03 04:55:09;;;;;;;0.55;0.20;;;17.70;38.40;;;;;;5814626;24;20164;-83
2023/04/03 04:57:42;;;;;;;0.43;0.40;;;17.70;38.40;;;;;;5920850;24;20159;-83
2023/04/03 05:00:13;;;;;;;0.25;0.22;;;17.70;38.40;;;;;;5949191;24;20215;-83
2023/04/03 05:02:44;;;;;;;0.75;0.30;;;17.70;38.50;;;;;;5971880;24;20172;-83
2023/04/03 05:05:10;;;;;;;0.52;0.40;;;17.70;38.50;;;;;;6057126;23;20527;-83
2023/04/03 05:07:42;;;;;;;0.40;0.30;;;17.70;38.50;;;;;;6109059;23;20148;-83
2023/04/03 05:10:12;;;;;;;0.75;0.20;;;17.70;38.50;;;;;;6085547;23;20652;-83
2023/04/03 05:12:41;;;;;;;0.55;0.30;;;17.70;38.50;;;;;;6086503;23;20596;-83
2023/04/03 05:15:08;;;;;;;1.20;0.30;;;17.70;38.50;;;;;;6109791;23;20155;-83
2023/04/03 05:17:34;;;;;;;0.20;0.20;;;17.70;38.40;;;;;;6179861;23;20156;-83
2023/04/03 05:20:05;;;;;;;0.63;0.32;;;17.70;38.50;;;;;;6232520;23;20196;-83
2023/04/03 05:22:35;;;;;;;0.25;0.22;;;17.60;38.60;;;;;;6182087;23;20157;-84
2023/04/03 05:25:01;;;;;;;0.32;0.30;;;17.70;38.50;;;;;;6177791;23;20153;-84
2023/04/03 05:27:28;;;;;;;0.60;0.35;;;17.70;38.50;;;;;;6223190;23;20145;-84
2023/04/03 05:29:54;;;;;;;0.90;0.30;;;17.70;38.40;;;;;;6195960;23;20565;-84
2023/04/03 05:32:21;;;;;;;0.77;0.40;;;17.70;38.40;;;;;;6221047;23;20137;-83
2023/04/03 05:34:46;;;;;;;0.93;0.20;;;17.70;38.40;;;;;;6223863;22;20134;-84
2023/04/03 05:37:13;;;;;;;0.85;0.40;;;17.80;38.40;;;;;;6225802;22;20160;-85
2023/04/03 05:39:43;;;;;;;0.40;0.40;;;17.80;38.40;;;;;;6276826;22;20169;-84
2023/04/03 05:42:13;;;;;;;0.90;0.30;;;17.80;38.40;;;;;;6228754;22;20175;-83
2023/04/03 05:44:44;;;;;;;1.08;0.40;;;17.80;38.30;;;;;;6204737;22;20270;-83
2023/04/03 05:47:10;;;;;;;1.25;0.30;;;17.80;38.30;;;;;;6202550;22;20589;-83
2023/04/03 05:49:35;;;;;;;0.40;0.30;;;17.70;38.30;;;;;;6226773;22;20572;-83
2023/04/03 05:52:01;;;;;;;1.00;0.40;;;17.80;38.30;;;;;;6252955;22;20133;-84
2023/04/03 05:54:28;;;;;;;0.40;0.30;;;17.80;38.30;;;;;;6279636;22;20541;-83
2023/04/03 05:56:53;;;;;;;0.60;0.40;;;17.80;38.30;;;;;;6254989;22;20145;-82
2023/04/03 05:59:20;;;;;;;0.43;0.30;;;17.80;38.30;;;;;;6275252;22;20206;-82
2023/04/03 06:01:47;;;;;;;0.45;0.40;;;17.90;38.30;;;;;;6231849;22;20239;-83
2023/04/03 06:04:18;;;;;;;0.60;0.30;;;17.80;38.20;;;;;;6233839;22;20207;-83
2023/04/03 06:06:55;;;;;;;0.47;0.30;;;17.90;38.30;;;;;;6201723;22;20157;-84
2023/04/03 06:09:25;;;;;;;0.40;0.38;;;17.90;38.30;;;;;;6224734;22;20132;-84
2023/04/03 06:11:51;;;;;;;1.40;0.32;;;17.90;38.20;;;;;;6174392;22;20184;-83
2023/04/03 06:14:17;;;;;;;0.35;0.32;;;17.90;38.20;;;;;;6249861;22;20518;-84
2023/04/03 06:16:43;;;;;;;1.95;0.30;;;17.90;38.20;;;;;;6249519;22;20136;-84
2023/04/03 06:19:09;;;;;;;1.40;0.35;;;18.00;38.20;;;;;;6226323;22;20151;-86
2023/04/03 06:21:35;;;;;;;1.42;0.25;;;18.00;38.20;;;;;;6230359;22;20178;-84
2023/04/03 06:24:03;;;;;;;1.67;0.30;;;18.00;38.20;;;;;;6253368;22;20301;-85
2023/04/03 06:26:39;;;;;;;0.80;0.30;;;18.00;38.10;;;;;;6207168;22;20149;-83
2023/04/03 06:29:04;;;;;;;2.58;0.35;;;18.00;38.10;;;;;;6259651;22;20153;-84
2023/04/03 06:31:31;;;;;;;0.52;0.30;;;18.00;38.10;;;;;;6261266;22;20144;-83
2023/04/03 06:34:02;;;;;;;0.90;0.25;;;18.10;38.00;;;;;;6234069;22;20160;-84
2023/04/03 06:36:29;;;;;;;2.40;0.47;;;18.00;38.00;;;;;;6184490;22;20279;-81
2023/04/03 06:38:57;;;;;;;0.95;0.50;;;18.10;38.10;;;;;;6227347;22;20240;-82
2023/04/03 06:41:26;;;;;;;2.08;0.40;;;18.10;38.00;;;;;;6251502;22;20181;-82
2023/04/03 06:43:56;;;;;;;3.92;0.50;;;18.20;37.80;;;;;;6253435;22;20219;-84
2023/04/03 06:46:22;;;;;;;4.10;0.43;;;18.20;37.70;;;;;;6229767;22;20171;-84
2023/04/03 06:48:49;;;;;;;17.88;0.80;;;18.20;37.70;;;;;;6232098;22;20139;-84
2023/04/03 06:51:26;;;;;;;13.18;1.20;;;18.20;37.80;;;;;;6194472;23;20150;-85
2023/04/03 06:53:53;;;;;;;12.27;1.13;;;18.10;37.80;;;;;;6197923;23;20150;-83
2023/04/03 06:56:20;;;;;;;18.08;1.38;;;18.20;37.80;;;;;;6197009;23;20614;-83
2023/04/03 06:58:51;;;;;;;12.88;1.55;;;18.20;37.80;;;;;;6195699;23;20160;-83
2023/04/03 07:04:39;;;;;;;12.15;1.10;;;18.20;37.90;;;;;;6121111;23;20197;-81
2023/04/03 07:07:08;;;;;;;12.18;1.15;;;18.30;37.80;;;;;;6135280;23;20190;-83
2023/04/03 07:09:36;;;;;;;8.40;0.70;;;18.30;37.80;;;;;;6126708;23;20156;-82
2023/04/03 07:12:03;;;;;;;8.98;0.70;;;18.20;37.90;;;;;;6154023;23;20260;-82
2023/04/03 07:14:33;;;;;;;3.38;0.47;;;18.20;38.10;;;;;;6187384;23;20548;-82
2023/04/03 07:17:02;;;;;;;3.47;0.50;;;18.30;38.10;;;;;;6114639;23;20210;-82
2023/04/03 07:19:36;;;;;;;7.38;0.45;;;18.20;38.10;;;;;;6139333;23;20150;-83
2023/04/03 07:22:06;;;;;;;6.78;0.60;;;18.20;38.20;;;;;;6137006;23;20150;-83
2023/04/03 07:24:49;;;;;;;8.50;0.50;;;18.20;38.10;;;;;;6161362;23;20183;-84
2023/04/03 07:27:17;;;;;;;10.65;1.05;;;18.30;37.70;;;;;;6162332;23;20166;-85
2023/04/03 07:29:43;;;;;;;9.05;1.50;;;18.40;37.50;;;;;;6190253;23;20158;-83
2023/04/03 07:32:13;;;;;;;13.80;1.10;;;18.50;37.50;;;;;;6173361;23;20156;-81
2023/04/03 07:34:39;;;;;;;11.88;0.90;;;18.50;37.70;;;;;;6196581;22;20154;-82
2023/04/03 07:37:08;;;;;;;9.80;0.82;;;18.40;37.90;;;;;;6199184;23;20165;-84
2023/04/03 07:39:39;;;;;;;9.73;0.70;;;18.40;38.80;;;;;;6201656;23;20134;-81
2023/04/03 07:42:12;;;;;;;5.07;1.00;;;18.40;38.20;;;;;;6150753;23;20644;-83
2023/04/03 07:44:38;;;;;;;7.65;0.68;;;18.40;38.10;;;;;;6257219;22;20208;-84
2023/04/03 07:47:07;;;;;;;6.38;0.90;;;18.50;38.10;;;;;;6231505;22;20276;-85
2023/04/03 07:49:34;;;;;;;4.40;0.63;;;18.60;37.90;;;;;;6206102;22;20221;-84
2023/04/03 07:52:14;;;;;;;5.03;0.43;;;18.60;37.90;;;;;;6251527;22;20148;-84
2023/04/03 07:55:02;;;;;;;6.55;0.68;;;18.70;37.80;;;;;;6234807;22;20540;-81
2023/04/03 07:57:45;;;;;;;4.38;0.85;;;18.80;38.10;;;;;;6227991;23;20222;-82
2023/04/03 08:00:14;;;;;;;5.35;0.77;;;18.80;38.00;;;;;;6181338;23;20192;-83
2023/04/03 08:02:40;;;;;;;4.60;0.60;;;18.80;38.10;;;;;;6248935;23;20157;-84
2023/04/03 08:05:10;;;;;;;4.78;0.50;;;18.80;38.00;;;;;;6200389;23;20180;-83
2023/04/03 08:07:37;;;;;;;7.25;0.80;;;18.80;38.10;;;;;;6199999;23;20577;-84
2023/04/03 08:10:38;;;;;;;7.53;0.63;;;18.80;38.00;;;;;;6255772;22;20584;-85
2023/04/03 08:13:11;;;;;;;2.42;0.60;;;18.80;37.90;;;;;;6251707;22;20174;-83
2023/04/03 08:19:29;;;;;;;3.85;0.68;;;18.80;38.10;;;;;;6163654;23;20177;-84
2023/04/03 08:22:21;;;;;;;5.93;0.68;;;18.90;38.00;;;;;;6159266;23;20205;-83
2023/04/03 08:25:10;;;;;;;5.78;0.88;;;19.00;37.80;;;;;;6080836;23;20256;-86
2023/04/03 08:27:54;;;;;;;6.75;0.60;;;18.90;37.80;;;;;;6014752;23;20206;-85
2023/04/03 08:30:20;;;;;;;4.72;0.40;;;18.90;38.20;;;;;;6109673;23;20588;-82
2023/04/03 08:32:49;;;;;;;6.43;0.95;;;18.90;38.30;;;;;;6107638;23;20190;-84
2023/04/03 08:35:20;;;;;;;3.85;0.52;;;18.70;38.30;;;;;;6099107;23;20247;-81
2023/04/03 08:37:46;;;;;;;4.93;0.50;;;18.80;38.30;;;;;;6028126;23;20167;-82
2023/04/03 08:40:26;;;;;;;4.60;0.57;;;18.70;38.60;;;;;;6077254;23;20239;-83
2023/04/03 08:43:05;;;;;;;4.38;0.35;;;18.70;38.70;;;;;;6077028;23;20202;-83
2023/04/03 08:45:50;;;;;;;4.13;0.40;;;18.70;38.50;;;;;;6055343;23;20159;-82
2023/04/03 08:48:26;;;;;;;3.22;0.50;;;18.80;38.60;;;;;;6133054;23;20198;-84
2023/04/03 08:51:16;;;;;;;2.58;0.73;;;18.70;38.60;;;;;;6039389;23;20158;-81
2023/04/03 08:54:03;;;;;;;2.10;0.40;;;18.70;38.90;;;;;;6046335;23;20161;-82
2023/04/03 08:56:35;;;;;;;3.47;0.47;;;18.60;39.10;;;;;;6004860;23;20158;-82
2023/04/03 08:59:14;;;;;;;3.83;0.60;;;18.70;39.10;;;;;;6016475;23;20162;-85
2023/04/03 09:01:43;;;;;;;3.30;0.65;;;18.60;39.00;;;;;;6052185;23;20507;-83
2023/04/03 09:04:19;;;;;;;7.47;0.50;;;18.60;39.10;;;;;;6072874;23;20185;-82
2023/04/03 09:06:50;;;;;;;0.85;0.40;;;18.70;39.10;;;;;;6091709;23;20162;-82
2023/04/03 09:09:45;;;;;;;1.08;0.57;;;18.80;38.90;;;;;;6107414;23;20179;-80
2023/04/03 09:12:26;;;;;;;3.15;0.50;;;19.00;38.50;;;;;;6133057;23;20158;-84
2023/04/03 09:15:11;;;;;;;3.25;0.50;;;19.00;38.80;;;;;;6154546;23;20143;-83
2023/04/03 09:17:53;;;;;;;6.95;0.60;;;19.20;38.50;;;;;;6154006;23;20501;-81
2023/04/03 09:24:36;;;;;;;4.20;0.50;;;19.20;38.50;;;;;;6120063;23;20198;-82
2023/04/03 09:27:12;;;;;;;1.77;0.30;;;19.20;38.50;;;;;;5898224;24;20157;-84
2023/04/03 09:29:43;;;;;;;0.95;0.20;;;19.20;38.60;;;;;;5859567;24;20157;-83
2023/04/03 09:32:54;;;;;;;2.60;0.32;;;19.20;38.60;;;;;;5973116;23;20162;-83
2023/04/03 09:35:25;;;;;;;2.55;0.50;;;19.10;38.70;;;;;;5919240;24;20192;-82
2023/04/03 09:38:09;;;;;;;3.20;0.40;;;19.10;38.70;;;;;;5954719;24;20152;-82
2023/04/03 09:40:42;;;;;;;6.80;0.60;;;19.20;38.60;;;;;;5954249;24;20167;-83
2023/04/03 09:43:22;;;;;;;4.32;0.70;;;19.20;38.80;;;;;;5954257;24;20595;-84
2023/04/03 09:45:48;;;;;;;4.75;0.40;;;19.10;39.00;;;;;;5949606;24;20161;-83
2023/04/03 09:48:20;;;;;;;5.18;0.45;;;19.10;39.10;;;;;;5902312;24;20382;-83
2023/04/03 09:50:58;;;;;;;3.03;0.55;;;19.00;38.90;;;;;;5925601;24;20157;-83
2023/04/03 09:53:40;;;;;;;0.47;0.40;;;19.00;38.90;;;;;;5925999;24;20157;-82
2023/04/03 09:56:21;;;;;;;2.58;0.30;;;19.00;38.80;;;;;;5925938;24;20164;-83
2023/04/03 09:58:52;;;;;;;2.15;0.40;;;19.10;38.60;;;;;;5925893;24;20248;-82
2023/04/03 10:01:30;;;;;;;1.17;0.32;;;19.00;38.60;;;;;;5925536;24;20329;-80
2023/04/03 10:04:12;;;;;;;1.67;0.47;;;19.00;38.50;;;;;;6108281;23;20687;-83
2023/04/03 10:06:46;;;;;;;4.53;0.40;;;19.00;38.50;;;;;;6224711;23;20154;-82
2023/04/03 10:09:29;;;;;;;3.47;0.40;;;19.00;38.40;;;;;;6220919;23;20133;-82
2023/04/03 10:12:11;;;;;;;0.55;0.25;;;19.00;38.60;;;;;;6247184;23;20232;-82
2023/04/03 10:14:41;;;;;;;1.80;0.35;;;19.00;38.40;;;;;;6222034;23;20256;-81
2023/04/03 10:17:29;;;;;;;2.95;0.43;;;19.00;38.50;;;;;;6288851;22;20148;-82
2023/04/03 10:20:19;;;;;;;2.58;0.50;;;19.10;38.40;;;;;;6308906;22;20136;-82
2023/04/03 10:23:16;;;;;;;1.10;0.43;;;19.00;38.70;;;;;;6267165;22;20288;-82
2023/04/03 10:26:07;;;;;;;2.38;0.50;;;19.10;38.60;;;;;;6291217;22;20129;-81
2023/04/03 10:28:59;;;;;;;4.40;0.40;;;19.00;38.80;;;;;;6310292;22;20147;-81
2023/04/03 10:31:33;;;;;;;1.20;0.40;;;18.90;39.00;;;;;;6309630;22;20552;-82
2023/04/03 10:34:04;;;;;;;2.42;0.30;;;18.80;39.10;;;;;;6310069;22;20136;-81
2023/04/03 10:36:55;;;;;;;1.90;0.45;;;18.80;39.00;;;;;;6336850;22;20217;-82
2023/04/03 10:39:32;;;;;;;2.33;0.32;;;18.70;39.10;;;;;;6339773;22;20184;-81
2023/04/03 10:42:13;;;;;;;5.78;0.73;;;18.70;39.10;;;;;;6313650;22;20158;-81
2023/04/03 10:44:59;;;;;;;2.10;0.40;;;18.70;39.00;;;;;;6312269;22;20186;-81
2023/04/03 10:47:30;;;;;;;2.28;0.40;;;18.70;39.10;;;;;;6343081;22;20145;-82
2023/04/03 10:50:02;;;;;;;1.85;0.55;;;18.70;39.00;;;;;;6313727;22;20159;-81
2023/04/03 10:52:49;;;;;;;1.40;0.32;;;18.70;39.20;;;;;;6341636;22;20170;-80
2023/04/03 10:55:38;;;;;;;2.55;0.65;;;18.70;38.80;;;;;;6315580;22;20135;-83
2023/04/03 10:58:04;;;;;;;4.68;0.60;;;18.70;38.90;;;;;;6310893;22;20147;-81
2023/04/03 11:00:47;;;;;;;4.55;0.60;;;18.70;38.50;;;;;;6312914;22;20563;-81
2023/04/03 11:03:35;;;;;;;2.38;0.57;;;18.80;38.50;;;;;;6340970;22;20186;-81
2023/04/03 11:06:02;;;;;;;2.55;0.50;;;18.80;38.60;;;;;;6318930;22;20162;-81
2023/04/03 11:08:33;;;;;;;1.98;0.40;;;18.80;38.80;;;;;;6313516;22;20139;-81
2023/04/03 11:11:03;;;;;;;1.95;0.30;;;18.80;38.50;;;;;;6316532;22;20127;-84
2023/04/03 11:13:40;;;;;;;3.58;0.52;;;18.90;38.60;;;;;;6292361;22;20142;-84
2023/04/03 11:16:06;;;;;;;4.32;0.38;;;19.00;38.00;;;;;;6314593;22;20498;-83
2023/04/03 11:18:46;;;;;;;1.98;0.50;;;19.00;38.00;;;;;;6286112;22;20131;-83
2023/04/03 11:21:34;;;;;;;2.40;0.50;;;19.00;38.20;;;;;;6312275;22;20199;-84
2023/04/03 11:24:00;;;;;;;2.70;0.60;;;19.00;38.50;;;;;;6317795;22;20167;-84
2023/04/03 11:26:29;;;;;;;1.80;0.50;;;18.90;38.50;;;;;;6287242;22;20481;-84
2023/04/03 11:28:59;;;;;;;0.65;0.35;;;18.90;38.90;;;;;;6290016;22;20131;-85
2023/04/03 11:31:53;;;;;;;2.17;0.30;;;18.80;38.80;;;;;;6288607;22;20597;-85
2023/04/03 11:34:44;;;;;;;0.32;0.28;;;18.90;38.50;;;;;;6258741;22;20154;-84
2023/04/03 11:37:38;;;;;;;1.33;0.30;;;18.90;37.90;;;;;;6275424;22;20194;-84
2023/04/03 11:40:22;;;;;;;2.33;0.50;;;18.90;37.70;;;;;;6251073;22;20149;-84
2023/04/03 11:43:03;;;;;;;2.05;0.57;;;18.90;37.80;;;;;;6227296;22;20186;-84
2023/04/03 11:45:34;;;;;;;0.15;0.10;;;18.90;37.70;;;;;;6229385;22;20153;-84
2023/04/03 11:48:21;;;;;;;2.78;0.43;;;18.80;38.00;;;;;;6277023;22;20145;-83
2023/04/03 11:50:51;;;;;;;1.50;0.20;;;18.90;37.90;;;;;;6259845;22;20460;-86
2023/04/03 11:53:32;;;;;;;3.22;0.30;;;18.90;37.80;;;;;;6207159;22;20152;-84
2023/04/03 11:56:04;;;;;;;0.50;0.32;;;18.90;37.90;;;;;;6251400;22;20156;-84
2023/04/03 11:58:36;;;;;;;1.20;0.20;;;18.90;38.00;;;;;;6251923;22;20231;-85
2023/04/03 12:01:11;;;;;;;1.55;0.32;;;18.80;37.80;;;;;;6202482;22;20235;-86
2023/04/03 12:03:56;;;;;;;0.70;0.20;;;18.90;37.60;;;;;;6226617;22;20231;-85
2023/04/03 12:06:48;;;;;;;2.53;0.28;;;18.80;37.60;;;;;;6251693;22;20157;-83
2023/04/03 12:09:32;;;;;;;0.98;0.30;;;18.80;37.90;;;;;;6276960;22;20232;-83
2023/04/03 12:12:19;;;;;;;0.20;0.20;;;18.80;37.70;;;;;;6281806;22;20129;-84
2023/04/03 12:14:50;;;;;;;1.00;0.30;;;18.70;37.90;;;;;;6208640;22;20618;-84
2023/04/03 12:17:24;;;;;;;0.70;0.35;;;18.70;37.70;;;;;;6225712;22;20234;-84
2023/04/03 12:19:50;;;;;;;2.05;0.30;;;18.70;37.70;;;;;;6251215;22;20595;-84
2023/04/03 12:22:20;;;;;;;0.50;0.20;;;18.70;37.80;;;;;;6252045;22;20133;-85
2023/04/03 12:24:51;;;;;;;1.13;0.40;;;18.70;37.70;;;;;;6250791;22;20255;-84
2023/04/03 12:27:29;;;;;;;1.73;0.40;;;18.70;37.50;;;;;;6227034;22;20252;-85
2023/04/03 12:30:04;;;;;;;1.50;0.30;;;18.70;37.40;;;;;;6279185;22;20194;-85
2023/04/03 12:32:58;;;;;;;0.80;0.15;;;18.70;37.40;;;;;;6252529;22;20152;-85
2023/04/03 12:35:33;;;;;;;0.32;0.20;;;18.70;37.50;;;;;;6291027;22;20244;-83
2023/04/03 12:38:25;;;;;;;0.77;0.20;;;18.80;37.20;;;;;;6262226;22;20167;-84
2023/04/03 12:41:16;;;;;;;1.52;0.30;;;18.70;37.10;;;;;;6313274;22;20175;-85
2023/04/03 12:43:59;;;;;;;1.95;0.25;;;18.70;37.00;;;;;;6309937;22;20197;-84
2023/04/03 12:46:28;;;;;;;0.43;0.20;;;18.70;36.90;;;;;;6310412;22;20577;-84
2023/04/03 12:48:58;;;;;;;2.05;0.30;;;18.70;36.70;;;;;;6284717;22;20136;-83
2023/04/03 12:51:45;;;;;;;0.70;0.25;;;18.70;36.80;;;;;;6259055;22;20140;-84
2023/04/03 12:54:19;;;;;;;0.82;0.20;;;18.70;36.80;;;;;;6258898;22;20217;-84
2023/04/03 12:56:46;;;;;;;0.68;0.30;;;18.70;36.80;;;;;;6230827;22;20166;-84
2023/04/03 12:59:20;;;;;;;1.65;0.35;;;18.70;36.50;;;;;;6281228;22;20194;-84
2023/04/03 13:01:57;;;;;;;1.45;0.20;;;18.70;36.80;;;;;;6231094;22;20301;-85
2023/04/03 13:04:28;;;;;;;0.35;0.35;;;18.70;36.60;;;;;;6208647;22;20530;-85
2023/04/03 13:06:58;;;;;;;1.42;0.30;;;18.80;36.20;;;;;;6255716;22;20159;-84
2023/04/03 13:09:29;;;;;;;0.65;0.28;;;18.70;36.20;;;;;;6233886;22;20152;-85
2023/04/03 13:12:08;;;;;;;1.88;0.30;;;18.70;36.20;;;;;;6234813;22;20159;-85
2023/04/03 13:14:34;;;;;;;0.20;0.20;;;18.80;36.20;;;;;;6313006;22;20189;-84
2023/04/03 13:17:09;;;;;;;0.30;0.20;;;18.90;35.70;;;;;;6261850;22;20132;-84
2023/04/03 13:19:35;;;;;;;1.08;0.30;;;18.90;35.70;;;;;;6291048;22;20154;-85
2023/04/03 13:22:04;;;;;;;0.32;0.30;;;18.90;35.30;;;;;;6285788;22;20219;-86
2023/04/03 13:24:30;;;;;;;0.20;0.20;;;19.00;35.00;;;;;;6288649;22;20199;-89
2023/04/03 13:26:57;;;;;;;0.40;0.20;;;19.10;35.20;;;;;;6288869;22;20129;-85
2023/04/03 13:29:33;;;;;;;1.10;0.20;;;19.10;35.00;;;;;;6291666;22;20156;-86
2023/04/03 13:32:00;;;;;;;1.25;0.20;;;19.10;35.40;;;;;;6294510;22;20136;-85
2023/04/03 13:34:38;;;;;;;0.30;0.20;;;19.10;35.00;;;;;;6261544;22;20144;-85
2023/04/03 13:37:11;;;;;;;0.20;0.17;;;19.10;35.20;;;;;;6310914;22;20136;-85
2023/04/03 13:39:38;;;;;;;1.10;0.22;;;19.00;35.10;;;;;;6306941;22;20136;-83
2023/04/03 13:42:22;;;;;;;1.02;0.20;;;19.00;35.20;;;;;;6306832;22;20160;-84
2023/04/03 13:44:48;;;;;;;1.50;0.22;;;18.90;35.20;;;;;;6307338;22;20192;-83
2023/04/03 13:47:20;;;;;;;0.25;0.20;;;19.00;35.10;;;;;;6281713;22;20136;-82
2023/04/03 13:49:58;;;;;;;1.13;0.30;;;19.00;35.60;;;;;;6282557;22;20573;-83
2023/04/03 13:52:27;;;;;;;0.20;0.20;;;18.90;34.90;;;;;;6309131;22;20128;-84
2023/04/03 13:54:56;;;;;;;0.35;0.20;;;19.00;34.80;;;;;;6258034;22;20474;-84
2023/04/03 13:57:23;;;;;;;0.52;0.25;;;19.00;34.90;;;;;;6261248;22;20147;-84
2023/04/03 13:59:49;;;;;;;0.22;0.20;;;19.10;34.60;;;;;;6286661;22;20138;-84
2023/04/03 14:02:20;;;;;;;0.43;0.30;;;19.00;34.60;;;;;;6310867;22;20128;-84
2023/04/03 14:04:56;;;;;;;0.40;0.28;;;19.00;34.50;;;;;;6286892;22;20222;-85
2023/04/03 14:07:23;;;;;;;0.30;0.30;;;19.10;34.70;;;;;;6264195;22;20627;-85
2023/04/03 14:09:49;;;;;;;0.30;0.20;;;19.00;34.70;;;;;;6262922;22;20133;-84
2023/04/03 14:12:19;;;;;;;1.83;0.30;;;19.00;34.50;;;;;;6285994;22;20145;-83
2023/04/03 14:14:47;;;;;;;0.47;0.28;;;19.00;34.60;;;;;;6265035;22;20144;-85
2023/04/03 14:17:16;;;;;;;1.30;0.10;;;19.00;34.60;;;;;;6311434;22;20567;-86
2023/04/03 14:19:43;;;;;;;0.40;0.38;;;19.00;35.40;;;;;;6315208;22;20159;-84
2023/04/03 14:22:29;;;;;;;0.57;0.20;;;19.00;34.50;;;;;;6265606;22;20136;-85
2023/04/03 14:25:00;;;;;;;0.98;0.30;;;19.00;34.50;;;;;;6252887;23;20185;-84
2023/04/03 14:27:34;;;;;;;2.80;0.30;;;19.00;34.50;;;;;;6223996;23;20172;-84
2023/04/03 14:30:00;;;;;;;2.10;0.30;;;19.10;34.00;;;;;;6247581;23;20251;-83
2023/04/03 14:32:26;;;;;;;0.90;0.30;;;19.10;34.00;;;;;;6252942;23;20134;-84
2023/04/03 14:34:52;;;;;;;0.32;0.30;;;19.10;34.50;;;;;;6227292;22;20236;-84
2023/04/03 14:37:21;;;;;;;0.73;0.20;;;19.00;34.60;;;;;;6248478;23;20137;-87
2023/04/03 14:39:46;;;;;;;0.43;0.20;;;19.00;34.40;;;;;;6251328;23;20145;-85
2023/04/03 14:42:15;;;;;;;0.90;0.30;;;19.00;34.30;;;;;;6225703;23;20486;-84
2023/04/03 14:44:42;;;;;;;2.05;0.22;;;19.00;34.00;;;;;;6226219;23;20185;-82
2023/04/03 14:47:12;;;;;;;1.80;0.40;;;19.00;34.40;;;;;;6225946;23;20142;-83
2023/04/03 14:49:39;;;;;;;0.40;0.30;;;19.00;34.40;;;;;;6227273;23;20173;-83
2023/04/03 14:52:05;;;;;;;0.93;0.30;;;19.00;34.50;;;;;;6229567;23;20149;-84
2023/04/03 14:54:32;;;;;;;0.30;0.20;;;18.90;34.70;;;;;;6256642;23;20208;-83
2023/04/03 14:56:59;;;;;;;0.22;0.20;;;18.90;34.50;;;;;;6287907;22;20242;-84
2023/04/03 14:59:25;;;;;;;2.65;0.30;;;18.90;34.70;;;;;;6259537;22;20557;-82
2023/04/03 15:01:56;;;;;;;1.33;0.30;;;18.90;34.90;;;;;;6285431;22;20132;-82
2023/04/03 15:04:22;;;;;;;2.10;0.20;;;18.80;35.10;;;;;;6285563;22;20440;-82
2023/04/03 15:06:48;;;;;;;0.50;0.20;;;18.80;35.00;;;;;;6257186;22;20151;-82
2023/04/03 15:09:23;;;;;;;1.00;0.22;;;18.70;35.00;;;;;;6309032;22;20128;-81
2023/04/03 15:11:49;;;;;;;1.88;0.30;;;18.70;34.80;;;;;;6311276;22;20216;-83
2023/04/03 15:14:15;;;;;;;0.60;0.30;;;18.70;34.80;;;;;;6287732;22;20147;-81
2023/04/03 15:16:43;;;;;;;2.22;0.10;;;18.70;34.90;;;;;;6283245;22;20217;-82
2023/04/03 15:19:09;;;;;;;0.38;0.20;;;18.80;34.80;;;;;;6283655;22;20148;-83
2023/04/03 15:21:35;;;;;;;1.40;0.20;;;18.80;34.80;;;;;;6263479;22;20174;-84
2023/04/03 15:24:04;;;;;;;0.35;0.25;;;18.90;34.10;;;;;;6314434;22;20164;-85
2023/04/03 15:26:30;;;;;;;2.90;0.35;;;19.00;34.10;;;;;;6286119;22;20127;-84
2023/04/03 15:28:56;;;;;;;2.40;0.30;;;19.00;34.30;;;;;;6263556;22;20144;-86
2023/04/03 15:31:45;;;;;;;0.50;0.30;;;19.10;34.50;;;;;;6283673;22;20140;-82
2023/04/03 15:34:15;;;;;;;1.90;0.15;;;19.00;34.70;;;;;;6193617;23;20158;-81
2023/04/03 15:36:53;;;;;;;2.03;0.20;;;19.00;34.70;;;;;;6219360;23;20267;-85
2023/04/03 15:39:22;;;;;;;2.17;0.20;;;19.00;34.60;;;;;;6176346;23;20158;-85
2023/04/03 15:42:05;;;;;;;1.88;0.30;;;19.00;35.00;;;;;;6171992;23;20226;-85
2023/04/03 15:44:48;;;;;;;1.38;0.20;;;19.10;34.80;;;;;;6178765;23;20200;-83
2023/04/03 15:47:17;;;;;;;3.40;0.30;;;19.00;34.70;;;;;;6150594;23;20237;-84
2023/04/03 15:49:43;;;;;;;5.22;0.52;;;19.10;34.70;;;;;;6196061;23;20150;-84
2023/04/03 15:52:11;;;;;;;6.07;0.50;;;19.00;34.40;;;;;;6149100;23;20233;-83
2023/04/03 15:54:37;;;;;;;5.05;0.40;;;19.00;34.40;;;;;;6172052;23;20154;-84
2023/04/03 15:57:10;;;;;;;1.30;0.30;;;19.10;34.40;;;;;;6193794;23;20142;-83
2023/04/03 15:59:40;;;;;;;2.88;0.50;;;19.00;34.40;;;;;;6167275;23;20162;-78
2023/04/03 16:02:06;;;;;;;1.83;0.30;;;19.00;34.70;;;;;;6165171;23;20229;-82
2023/04/03 16:04:32;;;;;;;5.25;0.40;;;18.90;34.40;;;;;;6209683;22;20179;-85
2023/04/03 16:07:12;;;;;;;;;;;;;;;;;;;;;
2023/04/03 16:09:43;;;;;;;1.35;0.20;;;18.90;35.10;;;;;;6255116;22;20176;-84
2023/04/03 16:12:12;;;;;;;4.43;0.50;;;18.90;34.80;;;;;;6311567;22;20140;-82
2023/04/03 16:14:52;;;;;;;;;;;;;;;;;;;;;
2023/04/03 16:17:18;;;;;;;4.65;0.60;;;18.90;34.90;;;;;;6226918;22;20235;-82
2023/04/03 16:19:46;;;;;;;4.88;0.55;;;18.90;34.60;;;;;;6257018;22;20140;-83
2023/04/03 16:22:12;;;;;;;9.45;0.80;;;18.90;34.60;;;;;;6309920;22;20198;-83
2023/04/03 16:24:38;;;;;;;14.63;1.13;;;19.00;34.60;;;;;;6310513;22;20591;-85
2023/04/03 16:27:04;;;;;;;12.15;1.38;;;18.90;35.20;;;;;;6262600;22;20150;-83
2023/04/03 16:29:30;;;;;;;5.93;0.88;;;19.00;34.80;;;;;;6261163;22;20140;-83
2023/04/03 16:32:08;;;;;;;6.50;0.98;;;18.90;34.90;;;;;;6292061;22;20203;-84
2023/04/03 16:34:54;;;;;;;8.10;0.80;;;18.90;34.90;;;;;;6270265;22;20483;-85
2023/04/03 16:40:33;;;;;;;5.75;0.80;;;18.90;35.30;;;;;;6171864;23;20223;-84
2023/04/03 16:42:59;;;;;;;8.70;0.77;;;18.90;35.20;;;;;;6117599;23;20159;-82
2023/04/03 16:45:33;;;;;;;8.13;0.73;;;18.90;35.10;;;;;;6117191;23;20174;-81
2023/04/03 16:48:15;;;;;;;6.20;0.98;;;18.80;35.00;;;;;;6089013;23;20164;-83
2023/04/03 16:50:42;;;;;;;5.45;0.75;;;18.80;34.70;;;;;;6111916;23;20155;-83
2023/04/03 16:53:09;;;;;;;2.67;0.70;;;18.80;34.80;;;;;;6116088;23;20158;-80
2023/04/03 16:55:39;;;;;;;6.07;0.40;;;18.80;34.90;;;;;;6115560;23;20132;-83
2023/04/03 16:58:06;;;;;;;4.78;0.73;;;18.90;34.60;;;;;;6085621;23;20307;-85
2023/04/03 17:00:39;;;;;;;3.83;0.70;;;18.90;34.20;;;;;;6111807;23;20139;-85
2023/04/03 17:03:25;;;;;;;3.47;0.43;;;18.90;34.50;;;;;;6133272;23;20636;-87
2023/04/03 17:05:56;;;;;;;3.15;0.40;;;19.00;34.60;;;;;;6134945;23;20226;-84
2023/04/03 17:08:27;;;;;;;2.55;0.50;;;19.00;34.50;;;;;;6111585;23;20152;-84
2023/04/03 17:10:54;;;;;;;2.33;0.65;;;19.10;34.20;;;;;;6160917;23;20147;-85
2023/04/03 17:13:33;;;;;;;;;;;;;;;;;;;;;
2023/04/03 17:16:00;;;;;;;5.60;0.60;;;19.10;34.50;;;;;;6077178;23;20180;-81
2023/04/03 17:18:36;;;;;;;7.32;0.68;;;19.10;34.70;;;;;;6183693;23;20259;-82
2023/04/03 17:21:06;;;;;;;2.00;0.55;;;19.10;34.70;;;;;;6143460;23;20154;-83
2023/04/03 17:23:34;;;;;;;4.03;0.80;;;19.20;35.00;;;;;;6166053;23;20228;-83
2023/04/03 17:26:01;;;;;;;5.22;0.68;;;19.00;34.90;;;;;;6216878;23;20149;-83
2023/04/03 17:28:27;;;;;;;6.03;0.60;;;19.10;35.00;;;;;;6219781;23;20278;-83
2023/04/03 17:30:58;;;;;;;1.83;0.70;;;19.00;34.60;;;;;;6216921;23;20134;-84
2023/04/03 17:33:29;;;;;;;3.10;0.70;;;19.10;34.60;;;;;;6218696;23;20142;-84
2023/04/03 17:35:58;;;;;;;2.90;0.52;;;19.00;34.50;;;;;;6219910;23;20204;-83
2023/04/03 17:38:30;;;;;;;4.95;0.60;;;19.00;34.20;;;;;;6195824;23;20570;-84